createdAt,value
2019-03-11T00:01:52.671Z,97828.55
2019-03-11T00:06:58.501Z,97836.91
2019-03-11T00:12:04.260Z,97847.66
2019-03-11T00:17:10.009Z,97863.34
2019-03-11T00:22:15.798Z,97884.23
2019-03-11T00:27:21.558Z,97894.92
2019-03-11T00:32:27.292Z,97931.86
2019-03-11T00:37:33.195Z,97952.03
2019-03-11T00:42:39.038Z,97972.22
2019-03-11T00:47:44.754Z,97952.84
2019-03-11T00:52:50.524Z,97936.55
2019-03-11T00:57:56.185Z,97937.14
2019-03-11T01:03:02.308Z,97928.47
2019-03-11T01:08:08.018Z,97906.08
2019-03-11T01:13:13.799Z,97901.74
2019-03-11T01:18:19.579Z,97896.50
2019-03-11T01:23:25.436Z,97895.09
2019-03-11T01:28:31.150Z,97900.17
2019-03-11T01:33:36.954Z,97884.92
2019-03-11T01:38:42.639Z,97912.92
2019-03-11T01:43:48.391Z,97923.31
2019-03-11T01:48:54.180Z,97988.75
2019-03-11T01:53:59.874Z,98031.94
2019-03-11T01:59:05.522Z,98043.52
2019-03-11T02:04:11.220Z,98073.78
2019-03-11T02:09:17.011Z,98118.94
2019-03-11T02:14:22.805Z,98149.66
2019-03-11T02:19:28.647Z,98181.00
2019-03-11T02:24:34.414Z,98209.75
2019-03-11T02:29:41.406Z,98221.86
2019-03-11T02:34:47.187Z,98230.66
2019-03-11T02:39:52.895Z,98253.97
2019-03-11T02:44:58.557Z,98246.57
2019-03-11T02:50:04.730Z,98273.25
2019-03-11T02:55:10.647Z,98248.62
2019-03-11T03:00:20.612Z,98237.89
2019-03-11T03:05:27.907Z,98234.80
2019-03-11T03:10:33.718Z,98241.28
2019-03-11T03:15:39.490Z,98237.72
2019-03-11T03:20:45.260Z,98216.53
2019-03-11T03:25:51.053Z,98227.07
2019-03-11T03:30:56.818Z,98234.15
2019-03-11T03:36:02.679Z,98257.13
2019-03-11T03:41:08.869Z,98274.47
2019-03-11T03:46:19.316Z,98285.56
2019-03-11T03:51:22.090Z,98287.02
2019-03-11T03:56:27.944Z,98304.33
2019-03-11T04:01:33.686Z,98303.80
2019-03-11T04:06:39.577Z,98316.95
2019-03-11T04:11:45.342Z,98296.70
2019-03-11T04:16:51.000Z,98295.66
2019-03-11T04:21:56.756Z,98323.34
2019-03-11T04:27:05.382Z,98313.77
2019-03-11T04:32:11.032Z,98304.09
2019-03-11T04:37:16.797Z,98308.28
2019-03-11T04:42:22.493Z,98292.45
2019-03-11T04:47:28.329Z,98282.92
2019-03-11T04:52:34.002Z,98239.56
2019-03-11T04:57:42.674Z,98204.81
2019-03-11T05:02:48.557Z,98095.59
2019-03-11T05:07:54.379Z,98024.31
2019-03-11T05:13:00.165Z,97960.61
2019-03-11T05:18:05.838Z,97917.39
2019-03-11T05:23:11.518Z,97871.12
2019-03-11T05:28:17.230Z,97821.84
2019-03-11T05:33:22.939Z,97820.37
2019-03-11T05:38:28.683Z,97770.91
2019-03-11T05:43:34.392Z,97715.14
2019-03-11T05:48:40.113Z,97721.77
2019-03-11T05:53:45.818Z,97705.22
2019-03-11T05:58:51.840Z,97668.23
2019-03-11T06:03:58.017Z,97684.11
2019-03-11T06:09:05.542Z,97689.58
2019-03-11T06:14:12.019Z,97667.47
2019-03-11T06:19:17.793Z,97695.31
2019-03-11T06:24:23.663Z,97712.58
2019-03-11T06:29:30.752Z,97715.45
2019-03-11T06:34:36.878Z,97750.74
2019-03-11T06:39:42.707Z,97762.08
2019-03-11T06:44:48.585Z,97821.88
2019-03-11T06:49:54.412Z,97854.09
2019-03-11T06:55:00.426Z,97843.90
2019-03-11T07:00:17.489Z,97858.05
2019-03-11T07:05:23.264Z,97857.25
2019-03-11T07:10:29.076Z,97878.60
2019-03-11T07:15:34.844Z,97903.97
2019-03-11T07:20:42.040Z,97952.45
2019-03-11T07:25:47.707Z,97953.19
2019-03-11T07:30:53.468Z,97954.11
2019-03-11T07:35:59.152Z,98016.93
2019-03-11T07:41:04.927Z,98008.68
2019-03-11T07:46:10.751Z,97979.16
2019-03-11T07:51:16.486Z,97981.84
2019-03-11T07:56:22.185Z,97963.27
2019-03-11T08:01:27.898Z,97980.28
2019-03-11T08:06:33.562Z,97972.97
2019-03-11T08:11:39.367Z,97956.44
2019-03-11T08:16:45.130Z,98018.34
2019-03-11T08:21:50.910Z,98038.09
2019-03-11T08:26:56.661Z,98087.44
2019-03-11T08:32:02.498Z,98130.94
2019-03-11T08:37:08.277Z,98180.78
2019-03-11T08:42:14.044Z,98248.28
2019-03-11T08:47:19.795Z,98267.17
2019-03-11T08:52:25.496Z,98272.29
2019-03-11T08:57:31.213Z,98287.89
2019-03-11T09:02:36.978Z,98301.90
2019-03-11T09:07:42.711Z,98352.88
2019-03-11T09:12:48.574Z,98297.72
2019-03-11T09:17:54.335Z,98264.09
2019-03-11T09:23:00.173Z,98217.61
2019-03-11T09:28:06.957Z,98134.69
2019-03-11T09:33:12.716Z,98108.99
2019-03-11T09:38:18.472Z,98067.73
2019-03-11T09:43:24.222Z,98078.30
2019-03-11T09:48:29.930Z,98035.09
2019-03-11T09:53:35.695Z,98018.30
2019-03-11T09:58:41.489Z,98038.10
2019-03-11T10:03:47.199Z,98009.62
2019-03-11T10:08:52.949Z,98040.20
2019-03-11T10:13:58.700Z,98008.17
2019-03-11T10:19:04.593Z,98024.56
2019-03-11T10:24:10.354Z,97979.44
2019-03-11T10:29:16.121Z,97959.44
2019-03-11T10:34:21.805Z,97926.05
2019-03-11T10:39:27.506Z,97947.99
2019-03-11T10:44:33.591Z,97929.84
2019-03-11T10:49:39.356Z,97923.76
2019-03-11T10:54:44.977Z,97913.25
2019-03-11T10:59:50.766Z,97870.69
2019-03-11T11:04:56.546Z,97873.98
2019-03-11T11:10:02.331Z,97848.67
2019-03-11T11:15:15.174Z,97821.53
2019-03-11T11:20:21.676Z,97832.90
2019-03-11T11:25:29.183Z,97842.52
2019-03-11T11:30:34.959Z,97847.75
2019-03-11T11:35:40.713Z,97827.92
2019-03-11T11:40:46.400Z,97832.00
2019-03-11T11:45:52.138Z,97828.63
2019-03-11T11:50:58.969Z,97814.60
2019-03-11T11:56:04.751Z,97873.04
2019-03-11T12:01:10.446Z,97879.65
2019-03-11T12:06:16.288Z,97845.20
2019-03-11T12:11:22.130Z,97895.28
2019-03-11T12:16:27.876Z,97879.75
2019-03-11T12:21:33.600Z,97915.39
2019-03-11T12:26:39.309Z,97952.53
2019-03-11T12:31:45.027Z,97970.41
2019-03-11T12:36:50.944Z,97967.09
2019-03-11T12:41:56.646Z,97975.38
2019-03-11T12:47:02.422Z,97962.87
2019-03-11T12:52:08.203Z,97925.95
2019-03-11T12:57:14.003Z,97927.30
2019-03-11T13:02:19.768Z,97960.95
2019-03-11T13:07:25.430Z,98006.48
2019-03-11T13:12:31.106Z,98058.52
2019-03-11T13:17:36.905Z,98043.70
2019-03-11T13:22:42.669Z,98107.99
2019-03-11T13:27:48.427Z,98109.70
2019-03-11T13:32:54.201Z,98117.84
2019-03-11T13:38:00.209Z,98129.08
2019-03-11T13:43:06.144Z,98137.05
2019-03-11T13:48:11.958Z,98204.03
2019-03-11T13:53:17.808Z,98212.91
2019-03-11T13:58:23.601Z,98231.53
2019-03-11T14:03:29.386Z,98267.98
2019-03-11T14:08:35.148Z,98293.29
2019-03-11T14:13:40.926Z,98288.63
2019-03-11T14:18:46.730Z,98325.05
2019-03-11T14:23:52.563Z,98340.80
2019-03-11T14:29:00.536Z,98350.16
2019-03-11T14:34:06.306Z,98345.78
2019-03-11T14:39:12.580Z,98365.33
2019-03-11T14:44:18.762Z,98281.30
2019-03-11T14:49:24.479Z,98202.77
2019-03-11T14:54:30.169Z,98188.17
2019-03-11T14:59:35.961Z,98149.58
2019-03-11T15:04:41.726Z,98127.63
2019-03-11T15:09:51.414Z,98151.99
2019-03-11T15:14:55.068Z,98131.14
2019-03-11T15:20:00.808Z,98092.02
2019-03-11T15:25:09.197Z,98077.61
2019-03-11T15:30:21.958Z,98035.95
2019-03-11T15:35:27.805Z,98019.70
2019-03-11T15:40:33.582Z,97996.55
2019-03-11T15:45:39.368Z,98060.06
2019-03-11T15:50:45.274Z,98091.48
2019-03-11T15:55:51.239Z,98079.22
2019-03-11T16:00:57.003Z,98062.56
2019-03-11T16:06:02.875Z,98034.75
2019-03-11T16:11:08.630Z,98070.84
2019-03-11T16:16:14.428Z,98090.66
2019-03-11T16:21:20.182Z,98062.73
2019-03-11T16:26:25.953Z,98027.78
2019-03-11T16:31:31.949Z,98047.50
2019-03-11T16:36:37.857Z,98051.95
2019-03-11T16:41:43.694Z,97940.70
2019-03-11T16:46:49.477Z,97941.35
2019-03-11T16:51:55.296Z,97935.95
2019-03-11T16:57:01.072Z,97922.06
2019-03-11T17:02:06.870Z,97893.75
2019-03-11T17:07:12.618Z,97884.72
2019-03-11T17:12:18.404Z,97880.42
2019-03-11T17:17:24.150Z,97866.32
2019-03-11T17:22:29.910Z,97851.61
2019-03-11T17:27:35.661Z,97865.60
2019-03-11T17:32:42.838Z,97873.31
2019-03-11T17:37:48.576Z,97859.09
2019-03-11T17:42:54.542Z,97845.92
2019-03-11T17:48:00.244Z,97863.35
2019-03-11T17:53:06.062Z,97886.88
2019-03-11T17:58:11.832Z,97890.61
2019-03-11T18:03:17.622Z,97909.20
2019-03-11T18:08:23.385Z,97930.93
2019-03-11T18:13:29.385Z,97951.99
2019-03-11T18:18:35.118Z,98098.55
2019-03-11T18:23:40.857Z,98093.51
2019-03-11T18:28:46.618Z,98103.95
2019-03-11T18:33:52.499Z,98088.44
2019-03-11T18:38:58.247Z,98075.58
2019-03-11T18:44:04.270Z,98078.34
2019-03-11T18:49:10.031Z,98090.08
2019-03-11T18:54:15.864Z,98069.04
2019-03-11T18:59:21.681Z,98081.91
2019-03-11T19:04:27.507Z,98108.44
2019-03-11T19:09:33.226Z,98092.62
2019-03-11T19:14:38.960Z,98107.88
2019-03-11T19:19:46.585Z,98104.84
2019-03-11T19:24:53.657Z,98107.94
2019-03-11T19:29:59.597Z,98113.77
2019-03-11T19:35:07.245Z,98120.23
2019-03-11T19:40:15.891Z,98124.59
2019-03-11T19:45:21.694Z,98124.45
2019-03-11T19:50:27.516Z,98111.05
2019-03-11T19:55:33.678Z,98108.82
2019-03-11T20:00:39.529Z,98092.52
2019-03-11T20:05:45.366Z,98091.55
2019-03-11T20:10:51.615Z,98078.63
2019-03-11T20:15:57.530Z,98065.23
2019-03-11T20:21:03.497Z,98071.83
2019-03-11T20:26:09.465Z,98054.84
2019-03-11T20:31:16.490Z,98022.73
2019-03-11T20:36:24.910Z,98029.16
2019-03-11T20:41:31.843Z,98019.27
2019-03-11T20:46:37.929Z,98013.98
2019-03-11T20:51:43.717Z,97983.97
2019-03-11T20:56:49.701Z,97976.89
2019-03-11T21:01:55.525Z,97962.47
2019-03-11T21:07:01.378Z,97955.70
2019-03-11T21:12:07.276Z,97975.83
2019-03-11T21:17:24.962Z,97967.36
2019-03-11T21:22:20.634Z,97982.17
2019-03-11T21:27:26.540Z,98004.81
2019-03-11T21:32:32.442Z,98025.23
2019-03-11T21:37:38.433Z,98035.95
2019-03-11T21:42:44.235Z,98068.39
2019-03-11T21:47:51.171Z,98080.81
2019-03-11T21:52:57.181Z,98097.97
2019-03-11T21:58:12.553Z,98110.34
2019-03-11T22:03:10.355Z,98226.59
2019-03-11T22:08:16.095Z,98276.95
2019-03-11T22:13:21.725Z,98323.15
2019-03-11T22:18:27.436Z,98327.02
2019-03-11T22:23:33.240Z,98342.59
2019-03-11T22:28:38.972Z,98364.19
2019-03-11T22:33:44.683Z,98430.36
2019-03-11T22:38:50.421Z,98430.28
2019-03-11T22:43:56.103Z,98480.46
2019-03-11T22:49:02.935Z,98502.33
2019-03-11T22:54:08.747Z,98569.27
2019-03-11T22:59:14.550Z,98590.67
2019-03-11T23:04:20.309Z,98600.20
2019-03-11T23:09:26.266Z,98626.51
2019-03-11T23:14:32.036Z,98664.99
2019-03-11T23:19:37.735Z,98685.38
2019-03-11T23:24:43.406Z,98687.02
2019-03-11T23:29:49.092Z,98702.30
2019-03-11T23:34:55.337Z,98713.64
2019-03-11T23:40:01.039Z,98718.88
2019-03-11T23:45:10.059Z,98733.66
2019-03-11T23:50:19.208Z,98737.91
2019-03-11T23:55:23.834Z,98749.77
